sensor_id;sensor_type;location;lat;lon;timestamp;pressure;altitude;pressure_sealevel;temperature;humidity
10474;BME280;5284;50.446;7.904;2023-09-18T00:00:42;97733.56;;;18.16;100.00
10474;BME280;5284;50.446;7.904;2023-09-18T00:05:46;97731.72;;;18.16;100.00
10474;BME280;5284;50.446;7.904;2023-09-18T00:10:53;97727.53;;;18.14;100.00
10474;BME280;5284;50.446;7.904;2023-09-18T00:15:57;97711.50;;;18.06;100.00
10474;BME280;5284;50.446;7.904;2023-09-18T00:21:03;97703.75;;;17.96;100.00
10474;BME280;5284;50.446;7.904;2023-09-18T00:26:09;97703.31;;;17.93;100.00
10474;BME280;5284;50.446;7.904;2023-09-18T00:31:13;97692.06;;;17.89;100.00
10474;BME280;5284;50.446;7.904;2023-09-18T00:36:18;97686.84;;;17.81;100.00
10474;BME280;5284;50.446;7.904;2023-09-18T00:41:21;97684.94;;;17.82;100.00
10474;BME280;5284;50.446;7.904;2023-09-18T00:46:25;97672.72;;;17.79;100.00
10474;BME280;5284;50.446;7.904;2023-09-18T00:51:29;97667.88;;;17.75;100.00
10474;BME280;5284;50.446;7.904;2023-09-18T00:56:32;97667.88;;;17.75;100.00
10474;BME280;5284;50.446;7.904;2023-09-18T01:01:36;97664.78;;;17.78;100.00
10474;BME280;5284;50.446;7.904;2023-09-18T01:06:40;97658.81;;;17.82;100.00
10474;BME280;5284;50.446;7.904;2023-09-18T01:11:50;97653.81;;;17.79;100.00
10474;BME280;5284;50.446;7.904;2023-09-18T01:16:58;97657.09;;;17.75;100.00
10474;BME280;5284;50.446;7.904;2023-09-18T01:22:06;97657.31;;;17.73;100.00
10474;BME280;5284;50.446;7.904;2023-09-18T01:27:12;97664.22;;;17.82;100.00
10474;BME280;5284;50.446;7.904;2023-09-18T01:32:16;97649.69;;;17.83;100.00
10474;BME280;5284;50.446;7.904;2023-09-18T01:37:20;97658.03;;;17.88;100.00
10474;BME280;5284;50.446;7.904;2023-09-18T01:42:26;97660.72;;;17.88;100.00
10474;BME280;5284;50.446;7.904;2023-09-18T01:47:29;97647.69;;;17.92;100.00
10474;BME280;5284;50.446;7.904;2023-09-18T01:52:32;97661.19;;;17.98;100.00
10474;BME280;5284;50.446;7.904;2023-09-18T01:57:37;97701.56;;;18.06;100.00
10474;BME280;5284;50.446;7.904;2023-09-18T02:02:41;97746.47;;;18.20;100.00
10474;BME280;5284;50.446;7.904;2023-09-18T02:07:54;97754.69;;;18.06;100.00
10474;BME280;5284;50.446;7.904;2023-09-18T02:12:59;97739.50;;;18.05;100.00
10474;BME280;5284;50.446;7.904;2023-09-18T02:18:04;97718.38;;;18.08;100.00
10474;BME280;5284;50.446;7.904;2023-09-18T02:23:07;97703.88;;;18.16;100.00
10474;BME280;5284;50.446;7.904;2023-09-18T02:28:11;97667.13;;;18.15;100.00
10474;BME280;5284;50.446;7.904;2023-09-18T02:33:15;97622.66;;;18.11;100.00
10474;BME280;5284;50.446;7.904;2023-09-18T02:38:18;97609.22;;;18.17;100.00
10474;BME280;5284;50.446;7.904;2023-09-18T02:43:23;97590.09;;;18.12;100.00
10474;BME280;5284;50.446;7.904;2023-09-18T02:48:26;97596.31;;;18.13;100.00
10474;BME280;5284;50.446;7.904;2023-09-18T02:53:29;97587.41;;;18.12;100.00
10474;BME280;5284;50.446;7.904;2023-09-18T02:58:33;97602.50;;;18.07;100.00
10474;BME280;5284;50.446;7.904;2023-09-18T03:03:36;97574.72;;;18.06;100.00
10474;BME280;5284;50.446;7.904;2023-09-18T03:08:41;97582.19;;;18.11;100.00
10474;BME280;5284;50.446;7.904;2023-09-18T03:13:46;97584.25;;;18.09;100.00
10474;BME280;5284;50.446;7.904;2023-09-18T03:18:51;97598.38;;;18.11;100.00
10474;BME280;5284;50.446;7.904;2023-09-18T03:23:55;97601.28;;;18.09;100.00
10474;BME280;5284;50.446;7.904;2023-09-18T03:29:01;97604.19;;;18.08;100.00
10474;BME280;5284;50.446;7.904;2023-09-18T03:34:04;97602.72;;;18.05;100.00
10474;BME280;5284;50.446;7.904;2023-09-18T03:39:07;97597.97;;;18.07;100.00
10474;BME280;5284;50.446;7.904;2023-09-18T03:44:12;97598.19;;;18.12;100.00
10474;BME280;5284;50.446;7.904;2023-09-18T03:49:17;97594.47;;;18.13;100.00
10474;BME280;5284;50.446;7.904;2023-09-18T03:54:20;97591.53;;;18.15;100.00
10474;BME280;5284;50.446;7.904;2023-09-18T03:59:24;97581.16;;;18.12;100.00
10474;BME280;5284;50.446;7.904;2023-09-18T04:04:27;97589.25;;;18.12;100.00
10474;BME280;5284;50.446;7.904;2023-09-18T04:09:31;97579.69;;;18.09;100.00
10474;BME280;5284;50.446;7.904;2023-09-18T04:14:38;97568.91;;;18.09;100.00
10474;BME280;5284;50.446;7.904;2023-09-18T04:19:42;97572.06;;;18.19;100.00
10474;BME280;5284;50.446;7.904;2023-09-18T04:24:46;97576.91;;;18.30;100.00
10474;BME280;5284;50.446;7.904;2023-09-18T04:29:51;97545.59;;;18.42;100.00
10474;BME280;5284;50.446;7.904;2023-09-18T04:34:55;97538.13;;;18.50;100.00
10474;BME280;5284;50.446;7.904;2023-09-18T04:39:59;97519.22;;;18.44;100.00
10474;BME280;5284;50.446;7.904;2023-09-18T04:45:05;97496.75;;;18.37;100.00
10474;BME280;5284;50.446;7.904;2023-09-18T04:50:10;97498.19;;;18.33;100.00
10474;BME280;5284;50.446;7.904;2023-09-18T04:55:16;97487.81;;;18.30;100.00
10474;BME280;5284;50.446;7.904;2023-09-18T05:00:21;97469.50;;;18.26;100.00
10474;BME280;5284;50.446;7.904;2023-09-18T05:05:27;97472.63;;;18.23;100.00
10474;BME280;5284;50.446;7.904;2023-09-18T05:10:32;97484.44;;;18.22;100.00
10474;BME280;5284;50.446;7.904;2023-09-18T05:15:36;97508.31;;;18.18;100.00
10474;BME280;5284;50.446;7.904;2023-09-18T05:20:39;97538.81;;;18.19;100.00
10474;BME280;5284;50.446;7.904;2023-09-18T05:25:43;97549.94;;;18.37;100.00
10474;BME280;5284;50.446;7.904;2023-09-18T05:30:47;97563.88;;;18.47;100.00
10474;BME280;5284;50.446;7.904;2023-09-18T05:35:50;97579.47;;;18.51;100.00
10474;BME280;5284;50.446;7.904;2023-09-18T05:40:53;97567.44;;;18.60;100.00
10474;BME280;5284;50.446;7.904;2023-09-18T05:45:57;97559.78;;;18.70;100.00
10474;BME280;5284;50.446;7.904;2023-09-18T05:51:01;97560.63;;;18.70;100.00
10474;BME280;5284;50.446;7.904;2023-09-18T05:56:06;97544.41;;;18.70;100.00
10474;BME280;5284;50.446;7.904;2023-09-18T06:01:12;97549.41;;;18.80;100.00
10474;BME280;5284;50.446;7.904;2023-09-18T06:06:15;97571.44;;;18.83;100.00
10474;BME280;5284;50.446;7.904;2023-09-18T06:11:20;97566.25;;;18.82;100.00
10474;BME280;5284;50.446;7.904;2023-09-18T06:16:24;97549.81;;;18.83;100.00
10474;BME280;5284;50.446;7.904;2023-09-18T06:21:28;97551.47;;;18.84;100.00
10474;BME280;5284;50.446;7.904;2023-09-18T06:26:31;97553.56;;;18.82;100.00
10474;BME280;5284;50.446;7.904;2023-09-18T06:31:36;97552.09;;;18.86;100.00
10474;BME280;5284;50.446;7.904;2023-09-18T06:36:39;97545.88;;;18.86;100.00
10474;BME280;5284;50.446;7.904;2023-09-18T06:41:43;97555.03;;;18.91;100.00
10474;BME280;5284;50.446;7.904;2023-09-18T06:46:48;97566.25;;;18.95;100.00
10474;BME280;5284;50.446;7.904;2023-09-18T06:51:51;97563.56;;;19.01;100.00
10474;BME280;5284;50.446;7.904;2023-09-18T06:56:54;97567.31;;;19.13;100.00
10474;BME280;5284;50.446;7.904;2023-09-18T07:01:59;97554.25;;;19.17;100.00
10474;BME280;5284;50.446;7.904;2023-09-18T07:07:03;97554.66;;;19.20;100.00
10474;BME280;5284;50.446;7.904;2023-09-18T07:12:06;97577.53;;;19.31;100.00
10474;BME280;5284;50.446;7.904;2023-09-18T07:17:11;97570.06;;;19.39;100.00
10474;BME280;5284;50.446;7.904;2023-09-18T07:22:14;97575.66;;;19.44;100.00
10474;BME280;5284;50.446;7.904;2023-09-18T07:27:17;97585.44;;;19.45;100.00
10474;BME280;5284;50.446;7.904;2023-09-18T07:32:22;97585.44;;;19.52;100.00
10474;BME280;5284;50.446;7.904;2023-09-18T07:37:38;97608.13;;;19.44;100.00
10474;BME280;5284;50.446;7.904;2023-09-18T07:42:41;97605.84;;;19.48;100.00
10474;BME280;5284;50.446;7.904;2023-09-18T07:47:48;97622.06;;;19.48;100.00
10474;BME280;5284;50.446;7.904;2023-09-18T07:52:51;97605.63;;;19.56;100.00
10474;BME280;5284;50.446;7.904;2023-09-18T07:57:55;97607.06;;;19.71;100.00
10474;BME280;5284;50.446;7.904;2023-09-18T08:03:02;97622.69;;;19.76;100.00
10474;BME280;5284;50.446;7.904;2023-09-18T08:08:05;97645.38;;;19.68;100.00
10474;BME280;5284;50.446;7.904;2023-09-18T08:13:08;97655.56;;;19.86;100.00
10474;BME280;5284;50.446;7.904;2023-09-18T08:18:12;97653.06;;;19.91;100.00
10474;BME280;5284;50.446;7.904;2023-09-18T08:23:16;97662.22;;;19.83;100.00
10474;BME280;5284;50.446;7.904;2023-09-18T08:28:19;97656.81;;;20.03;100.00
10474;BME280;5284;50.446;7.904;2023-09-18T08:33:23;97674.47;;;19.99;100.00
10474;BME280;5284;50.446;7.904;2023-09-18T08:38:26;97693.25;;;20.00;100.00
10474;BME280;5284;50.446;7.904;2023-09-18T08:43:31;97673.91;;;20.10;100.00
10474;BME280;5284;50.446;7.904;2023-09-18T08:48:38;97661.78;;;20.18;100.00
10474;BME280;5284;50.446;7.904;2023-09-18T08:53:41;97682.19;;;20.27;100.00
10474;BME280;5284;50.446;7.904;2023-09-18T08:58:45;97682.84;;;20.10;100.00
10474;BME280;5284;50.446;7.904;2023-09-18T09:03:50;97672.19;;;20.15;100.00
10474;BME280;5284;50.446;7.904;2023-09-18T09:08:54;97680.75;;;20.18;100.00
10474;BME280;5284;50.446;7.904;2023-09-18T09:14:09;97683.88;;;20.15;100.00
10474;BME280;5284;50.446;7.904;2023-09-18T09:19:15;97684.50;;;20.11;100.00
10474;BME280;5284;50.446;7.904;2023-09-18T09:24:35;97690.13;;;20.03;100.00
10474;BME280;5284;50.446;7.904;2023-09-18T09:29:39;97683.22;;;20.26;100.00
10474;BME280;5284;50.446;7.904;2023-09-18T09:34:44;97691.31;;;20.39;100.00
10474;BME280;5284;50.446;7.904;2023-09-18T09:39:50;97698.22;;;20.22;100.00
10474;BME280;5284;50.446;7.904;2023-09-18T09:45:02;97687.53;;;20.53;100.00
10474;BME280;5284;50.446;7.904;2023-09-18T09:50:09;97669.63;;;20.46;100.00
10474;BME280;5284;50.446;7.904;2023-09-18T09:55:19;97679.88;;;20.31;100.00
10474;BME280;5284;50.446;7.904;2023-09-18T10:00:25;97680.44;;;20.52;100.00
10474;BME280;5284;50.446;7.904;2023-09-18T10:05:35;97691.47;;;20.57;100.00
10474;BME280;5284;50.446;7.904;2023-09-18T10:10:42;97697.69;;;20.64;100.00
10474;BME280;5284;50.446;7.904;2023-09-18T10:15:49;97690.06;;;20.42;100.00
10474;BME280;5284;50.446;7.904;2023-09-18T10:21:00;97702.13;;;20.52;100.00
10474;BME280;5284;50.446;7.904;2023-09-18T10:26:09;97710.88;;;20.54;100.00
10474;BME280;5284;50.446;7.904;2023-09-18T10:31:15;97716.56;;;20.27;100.00
10474;BME280;5284;50.446;7.904;2023-09-18T10:36:21;97724.06;;;20.25;100.00
10474;BME280;5284;50.446;7.904;2023-09-18T10:41:26;97725.91;;;20.37;100.00
10474;BME280;5284;50.446;7.904;2023-09-18T10:46:30;97727.59;;;20.32;100.00
10474;BME280;5284;50.446;7.904;2023-09-18T10:51:38;97723.19;;;20.44;100.00
10474;BME280;5284;50.446;7.904;2023-09-18T10:56:43;97724.66;;;20.33;100.00
10474;BME280;5284;50.446;7.904;2023-09-18T11:01:48;97719.66;;;20.24;100.00
10474;BME280;5284;50.446;7.904;2023-09-18T11:07:04;97716.72;;;20.45;100.00
10474;BME280;5284;50.446;7.904;2023-09-18T11:12:11;97700.03;;;20.48;100.00
10474;BME280;5284;50.446;7.904;2023-09-18T11:17:31;97692.09;;;21.10;100.00
10474;BME280;5284;50.446;7.904;2023-09-18T11:22:48;97700.78;;;21.25;100.00
10474;BME280;5284;50.446;7.904;2023-09-18T11:27:53;97708.56;;;21.15;100.00
10474;BME280;5284;50.446;7.904;2023-09-18T11:32:58;97712.66;;;21.30;100.00
10474;BME280;5284;50.446;7.904;2023-09-18T11:38:09;97721.41;;;21.32;100.00
10474;BME280;5284;50.446;7.904;2023-09-18T11:43:20;97710.78;;;21.31;100.00
10474;BME280;5284;50.446;7.904;2023-09-18T11:48:28;97701.56;;;22.36;100.00
10474;BME280;5284;50.446;7.904;2023-09-18T11:53:35;97698.44;;;22.39;100.00
10474;BME280;5284;50.446;7.904;2023-09-18T11:58:50;97689.84;;;23.43;100.00
10474;BME280;5284;50.446;7.904;2023-09-18T12:03:54;97676.84;;;24.09;100.00
10474;BME280;5284;50.446;7.904;2023-09-18T12:09:00;97688.22;;;25.25;92.00
10474;BME280;5284;50.446;7.904;2023-09-18T12:14:06;97689.31;;;24.74;90.64
10474;BME280;5284;50.446;7.904;2023-09-18T12:19:16;97702.22;;;24.21;97.42
10474;BME280;5284;50.446;7.904;2023-09-18T12:24:22;97694.25;;;23.55;94.65
10474;BME280;5284;50.446;7.904;2023-09-18T12:29:25;97704.94;;;23.28;96.01
10474;BME280;5284;50.446;7.904;2023-09-18T12:34:28;97704.97;;;23.39;95.57
10474;BME280;5284;50.446;7.904;2023-09-18T12:39:33;97699.03;;;24.01;91.27
10474;BME280;5284;50.446;7.904;2023-09-18T12:44:37;97692.50;;;24.25;90.46
10474;BME280;5284;50.446;7.904;2023-09-18T12:49:41;97698.41;;;25.58;82.79
10474;BME280;5284;50.446;7.904;2023-09-18T12:54:46;97695.00;;;25.67;78.74
10474;BME280;5284;50.446;7.904;2023-09-18T12:59:55;97679.06;;;27.65;73.18
10474;BME280;5284;50.446;7.904;2023-09-18T13:04:59;97668.06;;;26.53;69.48
10474;BME280;5284;50.446;7.904;2023-09-18T13:10:06;97676.66;;;25.63;73.14
10474;BME280;5284;50.446;7.904;2023-09-18T13:15:24;97663.81;;;25.19;75.50
10474;BME280;5284;50.446;7.904;2023-09-18T13:20:30;97671.94;;;25.30;76.28
10474;BME280;5284;50.446;7.904;2023-09-18T13:25:36;97656.13;;;25.32;76.64
10474;BME280;5284;50.446;7.904;2023-09-18T13:30:41;97652.75;;;24.75;74.66
10474;BME280;5284;50.446;7.904;2023-09-18T13:35:45;97641.19;;;24.56;75.28
10474;BME280;5284;50.446;7.904;2023-09-18T13:40:51;97647.94;;;25.04;72.75
10474;BME280;5284;50.446;7.904;2023-09-18T13:45:56;97635.47;;;24.58;76.46
10474;BME280;5284;50.446;7.904;2023-09-18T13:51:00;97638.22;;;24.97;73.24
10474;BME280;5284;50.446;7.904;2023-09-18T13:56:07;97631.94;;;24.34;81.07
10474;BME280;5284;50.446;7.904;2023-09-18T14:01:10;97631.13;;;24.22;81.83
10474;BME280;5284;50.446;7.904;2023-09-18T14:06:13;97622.00;;;24.05;81.00
10474;BME280;5284;50.446;7.904;2023-09-18T14:11:19;97623.66;;;24.06;82.57
10474;BME280;5284;50.446;7.904;2023-09-18T14:16:23;97606.34;;;24.12;81.72
10474;BME280;5284;50.446;7.904;2023-09-18T14:21:26;97604.94;;;23.98;84.68
10474;BME280;5284;50.446;7.904;2023-09-18T14:26:35;97597.72;;;24.04;82.41
10474;BME280;5284;50.446;7.904;2023-09-18T14:31:42;97600.78;;;24.07;85.04
10474;BME280;5284;50.446;7.904;2023-09-18T14:36:46;97601.09;;;24.57;75.96
10474;BME280;5284;50.446;7.904;2023-09-18T14:41:51;97599.00;;;24.13;74.36
10474;BME280;5284;50.446;7.904;2023-09-18T14:46:55;97590.13;;;24.17;72.12
10474;BME280;5284;50.446;7.904;2023-09-18T14:51:57;97586.78;;;24.27;72.64
10474;BME280;5284;50.446;7.904;2023-09-18T14:57:03;97578.50;;;23.76;72.94
10474;BME280;5284;50.446;7.904;2023-09-18T15:02:05;97581.22;;;24.10;76.11
10474;BME280;5284;50.446;7.904;2023-09-18T15:07:09;97574.84;;;23.93;81.69
10474;BME280;5284;50.446;7.904;2023-09-18T15:12:14;97571.84;;;24.29;81.20
10474;BME280;5284;50.446;7.904;2023-09-18T15:17:18;97559.38;;;24.56;79.55
10474;BME280;5284;50.446;7.904;2023-09-18T15:22:23;97558.34;;;24.11;83.77
10474;BME280;5284;50.446;7.904;2023-09-18T15:27:28;97564.28;;;23.97;84.15
10474;BME280;5284;50.446;7.904;2023-09-18T15:32:45;97552.28;;;24.32;81.37
10474;BME280;5284;50.446;7.904;2023-09-18T15:37:52;97555.78;;;24.56;78.41
10474;BME280;5284;50.446;7.904;2023-09-18T15:42:56;97549.75;;;24.42;79.18
10474;BME280;5284;50.446;7.904;2023-09-18T15:47:59;97554.53;;;24.35;75.06
10474;BME280;5284;50.446;7.904;2023-09-18T15:53:04;97550.56;;;23.92;65.88
10474;BME280;5284;50.446;7.904;2023-09-18T15:58:09;97561.41;;;23.80;67.51
10474;BME280;5284;50.446;7.904;2023-09-18T16:03:12;97557.28;;;23.55;65.40
10474;BME280;5284;50.446;7.904;2023-09-18T16:08:17;97558.69;;;23.46;67.14
10474;BME280;5284;50.446;7.904;2023-09-18T16:13:21;97556.53;;;23.36;67.09
10474;BME280;5284;50.446;7.904;2023-09-18T16:18:24;97556.16;;;23.10;68.30
10474;BME280;5284;50.446;7.904;2023-09-18T16:23:28;97532.66;;;22.98;69.23
10474;BME280;5284;50.446;7.904;2023-09-18T16:28:33;97547.63;;;22.77;71.58
10474;BME280;5284;50.446;7.904;2023-09-18T16:33:36;97537.63;;;22.60;72.96
10474;BME280;5284;50.446;7.904;2023-09-18T16:38:40;97561.56;;;22.51;73.94
10474;BME280;5284;50.446;7.904;2023-09-18T16:43:45;97549.44;;;22.18;79.96
10474;BME280;5284;50.446;7.904;2023-09-18T16:48:48;97548.66;;;22.11;81.01
10474;BME280;5284;50.446;7.904;2023-09-18T16:53:55;97552.41;;;22.10;83.04
10474;BME280;5284;50.446;7.904;2023-09-18T16:58:59;97526.63;;;22.01;87.13
10474;BME280;5284;50.446;7.904;2023-09-18T17:04:03;97524.13;;;21.81;91.39
10474;BME280;5284;50.446;7.904;2023-09-18T17:09:06;97537.41;;;21.72;88.25
10474;BME280;5284;50.446;7.904;2023-09-18T17:14:12;97537.63;;;21.70;87.49
10474;BME280;5284;50.446;7.904;2023-09-18T17:19:15;97559.03;;;21.54;91.91
10474;BME280;5284;50.446;7.904;2023-09-18T17:24:19;97556.06;;;21.37;94.96
10474;BME280;5284;50.446;7.904;2023-09-18T17:29:25;97559.06;;;21.29;96.23
10474;BME280;5284;50.446;7.904;2023-09-18T17:34:28;97558.63;;;21.01;100.00
10474;BME280;5284;50.446;7.904;2023-09-18T17:39:32;97561.91;;;20.85;100.00
10474;BME280;5284;50.446;7.904;2023-09-18T17:44:38;97553.75;;;20.79;100.00
10474;BME280;5284;50.446;7.904;2023-09-18T17:49:41;97538.84;;;20.63;100.00
10474;BME280;5284;50.446;7.904;2023-09-18T17:54:44;97546.88;;;20.45;100.00
10474;BME280;5284;50.446;7.904;2023-09-18T17:59:49;97543.41;;;20.32;100.00
10474;BME280;5284;50.446;7.904;2023-09-18T18:04:53;97540.16;;;20.11;100.00
10474;BME280;5284;50.446;7.904;2023-09-18T18:09:56;97537.03;;;20.07;100.00
10474;BME280;5284;50.446;7.904;2023-09-18T18:15:01;97541.84;;;20.12;100.00
10474;BME280;5284;50.446;7.904;2023-09-18T18:20:07;97542.25;;;20.09;100.00
10474;BME280;5284;50.446;7.904;2023-09-18T18:25:10;97548.31;;;20.04;100.00
10474;BME280;5284;50.446;7.904;2023-09-18T18:30:15;97546.41;;;20.05;100.00
10474;BME280;5284;50.446;7.904;2023-09-18T18:35:19;97546.66;;;20.03;100.00
10474;BME280;5284;50.446;7.904;2023-09-18T18:40:25;97545.59;;;20.04;100.00
10474;BME280;5284;50.446;7.904;2023-09-18T18:45:30;97527.69;;;19.97;100.00
10474;BME280;5284;50.446;7.904;2023-09-18T18:50:34;97547.28;;;19.92;100.00
10474;BME280;5284;50.446;7.904;2023-09-18T18:55:40;97558.72;;;19.94;100.00
10474;BME280;5284;50.446;7.904;2023-09-18T19:00:44;97573.69;;;19.90;100.00
10474;BME280;5284;50.446;7.904;2023-09-18T19:05:50;97578.53;;;19.82;100.00
10474;BME280;5284;50.446;7.904;2023-09-18T19:10:53;97575.63;;;19.77;100.00
10474;BME280;5284;50.446;7.904;2023-09-18T19:15:58;97568.13;;;19.72;100.00
10474;BME280;5284;50.446;7.904;2023-09-18T19:21:01;97580.44;;;19.68;100.00
10474;BME280;5284;50.446;7.904;2023-09-18T19:26:11;97590.44;;;19.61;100.00
10474;BME280;5284;50.446;7.904;2023-09-18T19:31:19;97614.38;;;19.58;100.00
10474;BME280;5284;50.446;7.904;2023-09-18T19:36:22;97687.56;;;19.24;96.54
10474;BME280;5284;50.446;7.904;2023-09-18T19:41:26;97705.59;;;18.23;100.00
10474;BME280;5284;50.446;7.904;2023-09-18T19:46:31;97725.94;;;17.43;100.00
10474;BME280;5284;50.446;7.904;2023-09-18T19:51:36;97706.84;;;16.88;100.00
10474;BME280;5284;50.446;7.904;2023-09-18T19:56:40;97716.88;;;16.45;100.00
10474;BME280;5284;50.446;7.904;2023-09-18T20:01:44;97724.16;;;16.22;100.00
10474;BME280;5284;50.446;7.904;2023-09-18T20:06:48;97731.41;;;16.07;100.00
10474;BME280;5284;50.446;7.904;2023-09-18T20:11:51;97727.41;;;16.03;100.00
10474;BME280;5284;50.446;7.904;2023-09-18T20:16:55;97732.78;;;16.03;100.00
10474;BME280;5284;50.446;7.904;2023-09-18T20:21:59;97735.53;;;15.95;100.00
10474;BME280;5284;50.446;7.904;2023-09-18T20:27:04;97721.28;;;15.94;100.00
10474;BME280;5284;50.446;7.904;2023-09-18T20:32:10;97726.28;;;15.97;100.00
10474;BME280;5284;50.446;7.904;2023-09-18T20:37:15;97733.50;;;15.97;100.00
10474;BME280;5284;50.446;7.904;2023-09-18T20:42:17;97722.84;;;16.03;100.00
10474;BME280;5284;50.446;7.904;2023-09-18T20:47:22;97727.22;;;16.04;100.00
10474;BME280;5284;50.446;7.904;2023-09-18T20:52:27;97725.38;;;16.05;100.00
10474;BME280;5284;50.446;7.904;2023-09-18T20:57:30;97730.75;;;16.05;100.00
10474;BME280;5284;50.446;7.904;2023-09-18T21:02:35;97736.97;;;16.05;100.00
10474;BME280;5284;50.446;7.904;2023-09-18T21:07:39;97740.66;;;16.04;100.00
10474;BME280;5284;50.446;7.904;2023-09-18T21:12:42;97737.81;;;16.06;100.00
10474;BME280;5284;50.446;7.904;2023-09-18T21:17:47;97746.31;;;15.95;100.00
10474;BME280;5284;50.446;7.904;2023-09-18T21:22:50;97757.38;;;16.00;100.00
10474;BME280;5284;50.446;7.904;2023-09-18T21:27:53;97757.38;;;16.00;100.00
10474;BME280;5284;50.446;7.904;2023-09-18T21:33:03;97758.56;;;15.97;100.00
10474;BME280;5284;50.446;7.904;2023-09-18T21:38:07;97759.22;;;15.99;100.00
10474;BME280;5284;50.446;7.904;2023-09-18T21:43:10;97769.50;;;15.96;100.00
10474;BME280;5284;50.446;7.904;2023-09-18T21:48:15;97771.28;;;16.03;100.00
10474;BME280;5284;50.446;7.904;2023-09-18T21:53:18;97779.19;;;16.05;100.00
10474;BME280;5284;50.446;7.904;2023-09-18T21:58:21;97787.41;;;16.03;100.00
10474;BME280;5284;50.446;7.904;2023-09-18T22:03:25;97795.56;;;15.95;100.00
10474;BME280;5284;50.446;7.904;2023-09-18T22:08:29;97780.91;;;15.98;100.00
10474;BME280;5284;50.446;7.904;2023-09-18T22:13:32;97785.25;;;15.99;100.00
10474;BME280;5284;50.446;7.904;2023-09-18T22:18:37;97792.03;;;15.95;100.00
10474;BME280;5284;50.446;7.904;2023-09-18T22:23:41;97795.56;;;15.95;100.00
10474;BME280;5284;50.446;7.904;2023-09-18T22:28:44;97798.41;;;15.94;100.00
10474;BME280;5284;50.446;7.904;2023-09-18T22:33:48;97793.91;;;15.94;100.00
10474;BME280;5284;50.446;7.904;2023-09-18T22:38:59;97801.06;;;16.02;100.00
10474;BME280;5284;50.446;7.904;2023-09-18T22:55:28;97794.09;;;16.07;100.00
10474;BME280;5284;50.446;7.904;2023-09-18T23:00:32;97805.06;;;16.06;100.00
10474;BME280;5284;50.446;7.904;2023-09-18T23:05:36;97800.50;;;16.06;100.00
10474;BME280;5284;50.446;7.904;2023-09-18T23:10:42;97806.34;;;16.10;100.00
10474;BME280;5284;50.446;7.904;2023-09-18T23:15:45;97798.66;;;16.07;100.00
10474;BME280;5284;50.446;7.904;2023-09-18T23:20:49;97802.81;;;16.09;100.00
10474;BME280;5284;50.446;7.904;2023-09-18T23:25:56;97817.78;;;16.12;100.00
10474;BME280;5284;50.446;7.904;2023-09-18T23:31:00;97814.44;;;16.10;100.00
10474;BME280;5284;50.446;7.904;2023-09-18T23:36:06;97812.56;;;16.10;100.00
10474;BME280;5284;50.446;7.904;2023-09-18T23:41:10;97829.06;;;16.07;100.00
10474;BME280;5284;50.446;7.904;2023-09-18T23:46:13;97825.94;;;16.04;100.00
10474;BME280;5284;50.446;7.904;2023-09-18T23:51:19;97834.81;;;16.04;100.00
10474;BME280;5284;50.446;7.904;2023-09-18T23:56:23;97833.34;;;16.02;100.00
